Terminal Aerodrome Forecast
Issued by NWS

Home | Current Version | Previous Version | Text Only | Print | Product List | Glossary Off
Versions: 1 2 3 4 5 6 7 8 9 10 11 12 13

000
FTUS45 KGGW 241731
TAFSDY
TAF
KSDY 241731Z 2418/2518 29020G29KT P6SM BKN035
     FM250000 32014KT P6SM BKN035
     FM250300 31008KT P6SM BKN040
     FM250600 30007KT P6SM SCT070=

USA.gov is the U.S. government's official web portal to all federal, state and local government web resources and services.